createdAt,value
2017-11-25T00:00:15.393Z,22.78
2017-11-25T00:00:44.117Z,22.73
2017-11-25T00:01:12.430Z,22.74
2017-11-25T00:01:40.627Z,22.78
2017-11-25T00:02:08.713Z,22.71
2017-11-25T00:02:36.886Z,22.77
2017-11-25T00:03:05.529Z,22.73
2017-11-25T00:03:33.596Z,22.78
2017-11-25T00:04:01.659Z,22.74
2017-11-25T00:04:29.621Z,22.76
2017-11-25T00:04:57.601Z,22.73
2017-11-25T00:05:25.920Z,22.74
2017-11-25T00:05:54.067Z,22.77
2017-11-25T00:06:21.917Z,22.74
2017-11-25T00:06:50.016Z,22.77
2017-11-25T00:07:18.000Z,22.78
2017-11-25T00:07:46.653Z,22.67
2017-11-25T00:08:14.845Z,22.68
2017-11-25T00:08:43.193Z,22.68
2017-11-25T00:09:11.282Z,22.7
2017-11-25T00:09:39.732Z,22.74
2017-11-25T00:10:07.844Z,22.7
2017-11-25T00:10:36.000Z,22.68
2017-11-25T00:11:04.096Z,22.71
2017-11-25T00:11:32.667Z,22.65
2017-11-25T00:12:01.382Z,22.68
2017-11-25T00:12:30.139Z,22.68
2017-11-25T00:12:58.236Z,22.68
2017-11-25T00:13:26.614Z,22.68
2017-11-25T00:13:54.791Z,22.74
2017-11-25T00:14:23.053Z,22.71
2017-11-25T00:14:51.346Z,22.63
2017-11-25T00:15:19.318Z,22.67
2017-11-25T00:15:47.644Z,22.67
2017-11-25T00:16:15.787Z,22.73
2017-11-25T00:16:44.011Z,22.62
2017-11-25T00:17:26.537Z,22.65
2017-11-25T00:17:54.699Z,22.65
2017-11-25T00:18:23.072Z,22.55
2017-11-25T00:18:51.182Z,22.56
2017-11-25T00:19:19.156Z,22.58
2017-11-25T00:19:47.483Z,22.62
2017-11-25T00:20:15.704Z,22.55
2017-11-25T00:20:43.653Z,22.55
2017-11-25T00:21:11.681Z,22.49
2017-11-25T00:21:39.775Z,22.47
2017-11-25T00:22:07.876Z,22.49
2017-11-25T00:22:36.041Z,22.51
2017-11-25T00:23:04.280Z,22.44
2017-11-25T00:23:32.387Z,22.53
2017-11-25T00:24:00.586Z,22.56
2017-11-25T00:24:28.711Z,22.58
2017-11-25T00:24:56.764Z,22.49
2017-11-25T00:25:24.829Z,22.51
2017-11-25T00:25:52.887Z,22.51
2017-11-25T00:26:21.506Z,22.46
2017-11-25T00:26:49.459Z,22.41
2017-11-25T00:27:17.527Z,22.4
2017-11-25T00:27:45.558Z,22.38
2017-11-25T00:28:13.632Z,22.4
2017-11-25T00:28:41.707Z,22.44
2017-11-25T00:29:09.882Z,22.43
2017-11-25T00:29:37.817Z,22.36
2017-11-25T00:30:05.822Z,22.34
2017-11-25T00:30:34.085Z,22.36
2017-11-25T00:31:02.097Z,22.3
2017-11-25T00:31:30.295Z,22.31
2017-11-25T00:31:58.524Z,22.36
2017-11-25T00:32:26.701Z,22.34
2017-11-25T00:32:54.872Z,22.33
2017-11-25T00:33:23.355Z,22.3
2017-11-25T00:33:51.565Z,22.25
2017-11-25T00:34:19.880Z,22.33
2017-11-25T00:34:48.041Z,22.19
2017-11-25T00:35:16.261Z,22.33
2017-11-25T00:35:44.301Z,22.22
2017-11-25T00:36:12.482Z,22.19
2017-11-25T00:36:40.638Z,22.23
2017-11-25T00:37:08.776Z,22.25
2017-11-25T00:37:36.814Z,22.18
2017-11-25T00:38:05.168Z,22.31
2017-11-25T00:38:33.361Z,22.18
2017-11-25T00:39:01.496Z,22.19
2017-11-25T00:39:29.563Z,22.19
2017-11-25T00:39:57.643Z,22.18
2017-11-25T00:40:25.585Z,22.28
2017-11-25T00:40:53.723Z,22.33
2017-11-25T00:41:21.925Z,22.25
2017-11-25T00:41:50.116Z,22.28
2017-11-25T00:42:18.373Z,22.28
2017-11-25T00:42:46.517Z,22.33
2017-11-25T00:43:14.745Z,22.34
2017-11-25T00:43:42.653Z,22.33
2017-11-25T00:44:10.799Z,22.31
2017-11-25T00:44:39.190Z,22.33
2017-11-25T00:45:07.277Z,22.28
2017-11-25T00:45:35.832Z,22.26
2017-11-25T00:46:03.986Z,22.28
2017-11-25T00:46:32.062Z,22.33
2017-11-25T00:47:00.161Z,22.28
2017-11-25T00:47:28.354Z,22.16
2017-11-25T00:47:56.329Z,22.15
2017-11-25T00:48:24.432Z,22.15
2017-11-25T00:48:52.620Z,22.07
2017-11-25T00:49:20.799Z,22.16
2017-11-25T00:49:49.114Z,22.15
2017-11-25T00:50:17.316Z,22.08
2017-11-25T00:50:45.399Z,22.03
2017-11-25T00:51:13.524Z,22.07
2017-11-25T00:51:41.765Z,22.07
2017-11-25T00:52:09.813Z,21.97
2017-11-25T00:52:37.793Z,21.99
2017-11-25T00:53:05.928Z,22.01
2017-11-25T00:53:34.090Z,22
2017-11-25T00:54:02.302Z,22.06
2017-11-25T00:54:30.259Z,21.97
2017-11-25T00:54:58.316Z,21.97
2017-11-25T00:55:26.490Z,21.94
2017-11-25T00:55:54.659Z,21.99
2017-11-25T00:56:22.843Z,21.97
2017-11-25T00:56:51.017Z,22.01
2017-11-25T00:57:19.135Z,22.01
2017-11-25T00:57:47.217Z,22
2017-11-25T00:58:15.470Z,21.97
2017-11-25T00:58:43.414Z,22.04
2017-11-25T00:59:11.545Z,22.01
2017-11-25T00:59:39.850Z,22.07
2017-11-25T01:00:07.815Z,22.04
2017-11-25T01:00:36.000Z,21.94
2017-11-25T01:01:04.055Z,21.97
2017-11-25T01:01:47.156Z,21.97
2017-11-25T01:02:15.346Z,21.94
2017-11-25T01:02:43.496Z,21.94
2017-11-25T01:03:11.585Z,22.08
2017-11-25T01:03:39.785Z,21.96
2017-11-25T01:04:08.510Z,21.97
2017-11-25T01:04:36.492Z,22.04
2017-11-25T01:05:04.509Z,21.92
2017-11-25T01:05:32.634Z,21.96
2017-11-25T01:06:00.827Z,21.96
2017-11-25T01:06:28.995Z,21.85
2017-11-25T01:06:57.569Z,21.96
2017-11-25T01:07:25.716Z,22.04
2017-11-25T01:07:54.126Z,22.01
2017-11-25T01:08:22.290Z,21.96
2017-11-25T01:08:50.777Z,22.03
2017-11-25T01:09:18.862Z,22.01
2017-11-25T01:09:47.693Z,22.01
2017-11-25T01:10:16.210Z,22.03
2017-11-25T01:10:44.671Z,21.97
2017-11-25T01:11:12.908Z,22.06
2017-11-25T01:11:41.069Z,21.99
2017-11-25T01:12:09.349Z,21.97
2017-11-25T01:12:37.869Z,21.99
2017-11-25T01:13:05.944Z,21.97
2017-11-25T01:13:34.413Z,21.97
2017-11-25T01:14:03.077Z,21.97
2017-11-25T01:14:31.238Z,21.99
2017-11-25T01:14:59.745Z,21.97
2017-11-25T01:15:27.889Z,22.03
2017-11-25T01:15:55.991Z,22.01
2017-11-25T01:16:24.127Z,22.04
2017-11-25T01:16:52.485Z,22.03
2017-11-25T01:17:20.648Z,21.96
2017-11-25T01:17:48.863Z,21.94
2017-11-25T01:18:16.961Z,21.99
2017-11-25T01:18:45.351Z,21.94
2017-11-25T01:19:13.520Z,22.01
2017-11-25T01:19:41.704Z,21.89
2017-11-25T01:20:09.882Z,21.96
2017-11-25T01:20:38.570Z,21.89
2017-11-25T01:21:06.661Z,21.91
2017-11-25T01:21:34.817Z,21.84
2017-11-25T01:22:03.109Z,21.85
2017-11-25T01:22:31.067Z,21.77
2017-11-25T01:22:59.679Z,21.78
2017-11-25T01:23:27.765Z,21.75
2017-11-25T01:23:56.515Z,21.72
2017-11-25T01:24:24.538Z,21.81
2017-11-25T01:24:52.560Z,21.75
2017-11-25T01:25:20.911Z,21.68
2017-11-25T01:25:49.136Z,21.69
2017-11-25T01:26:17.243Z,21.63
2017-11-25T01:26:45.398Z,21.66
2017-11-25T01:27:13.554Z,21.58
2017-11-25T01:27:42.150Z,21.58
2017-11-25T01:28:10.820Z,21.58
2017-11-25T01:28:39.561Z,21.66
2017-11-25T01:29:07.698Z,21.66
2017-11-25T01:29:35.919Z,21.54
2017-11-25T01:30:04.397Z,21.53
2017-11-25T01:30:32.353Z,21.54
2017-11-25T01:31:00.543Z,21.54
2017-11-25T01:31:28.689Z,21.54
2017-11-25T01:31:57.289Z,21.54
2017-11-25T01:32:25.443Z,21.58
2017-11-25T01:32:53.484Z,21.58
2017-11-25T01:33:21.927Z,21.51
2017-11-25T01:33:50.075Z,21.48
2017-11-25T01:34:18.221Z,21.48
2017-11-25T01:34:46.452Z,21.48
2017-11-25T01:35:14.527Z,21.5
2017-11-25T01:35:43.251Z,21.45
2017-11-25T01:36:11.406Z,21.5
2017-11-25T01:36:40.060Z,21.41
2017-11-25T01:37:08.235Z,21.38
2017-11-25T01:37:36.418Z,21.44
2017-11-25T01:38:04.569Z,21.41
2017-11-25T01:38:32.683Z,21.45
2017-11-25T01:39:01.020Z,21.47
2017-11-25T01:39:29.739Z,21.32
2017-11-25T01:39:57.832Z,21.43
2017-11-25T01:40:26.217Z,21.47
2017-11-25T01:40:54.404Z,21.44
2017-11-25T01:41:22.476Z,21.45
2017-11-25T01:41:50.508Z,21.38
2017-11-25T01:42:18.435Z,21.5
2017-11-25T01:42:46.565Z,21.5
2017-11-25T01:43:14.868Z,21.45
2017-11-25T01:43:42.917Z,21.43
2017-11-25T01:44:11.134Z,21.5
2017-11-25T01:44:39.246Z,21.48
2017-11-25T01:45:07.307Z,21.5
2017-11-25T01:45:35.450Z,21.41
2017-11-25T01:46:03.598Z,21.44
2017-11-25T01:46:31.541Z,21.47
2017-11-25T01:46:59.607Z,21.38
2017-11-25T01:47:27.768Z,21.41
2017-11-25T01:47:55.879Z,21.38
2017-11-25T01:48:23.942Z,21.3
2017-11-25T01:48:52.002Z,21.28
2017-11-25T01:49:20.143Z,21.29
2017-11-25T01:49:48.415Z,21.29
2017-11-25T01:50:16.398Z,21.29
2017-11-25T01:50:45.002Z,21.32
2017-11-25T01:51:13.094Z,21.3
2017-11-25T01:51:41.460Z,21.28
2017-11-25T01:52:09.609Z,21.28
2017-11-25T01:52:37.973Z,21.2
2017-11-25T01:53:06.685Z,21.29
2017-11-25T01:53:34.827Z,21.22
2017-11-25T01:54:03.316Z,21.19
2017-11-25T01:54:31.412Z,21.15
2017-11-25T01:54:59.459Z,21.2
2017-11-25T01:55:27.590Z,21.11
2017-11-25T01:55:55.951Z,21.1
2017-11-25T01:56:24.005Z,21.17
2017-11-25T01:56:52.067Z,21.17
2017-11-25T01:57:20.491Z,21.1
2017-11-25T01:57:48.646Z,21.07
2017-11-25T01:58:17.015Z,21.13
2017-11-25T01:58:45.081Z,21.03
2017-11-25T01:59:13.125Z,21.03
2017-11-25T01:59:41.264Z,21.05
2017-11-25T02:00:09.424Z,21.07
2017-11-25T02:00:37.554Z,21.01
2017-11-25T02:01:05.954Z,21.07
2017-11-25T02:01:34.021Z,21.01
2017-11-25T02:02:02.136Z,21.1
2017-11-25T02:02:30.176Z,21.08
2017-11-25T02:02:58.309Z,21.01
2017-11-25T02:03:26.455Z,21.13
2017-11-25T02:03:54.677Z,21.14
2017-11-25T02:04:22.883Z,21.1
2017-11-25T02:04:51.077Z,21.13
2017-11-25T02:05:19.200Z,21.11
2017-11-25T02:05:47.380Z,21.1
2017-11-25T02:06:15.594Z,21.04
2017-11-25T02:06:43.660Z,21.04
2017-11-25T02:07:11.799Z,20.98
2017-11-25T02:07:39.879Z,21.1
2017-11-25T02:08:08.122Z,21.11
2017-11-25T02:08:36.821Z,20.98
2017-11-25T02:09:05.371Z,21.04
2017-11-25T02:09:33.524Z,21.04
2017-11-25T02:10:01.691Z,21.01
2017-11-25T02:10:29.841Z,21.04
2017-11-25T02:10:58.069Z,21
2017-11-25T02:11:26.210Z,21.05
2017-11-25T02:11:54.395Z,21.07
2017-11-25T02:12:22.549Z,20.89
2017-11-25T02:12:50.728Z,21.03
2017-11-25T02:13:18.891Z,20.95
2017-11-25T02:13:47.030Z,20.92
2017-11-25T02:14:15.201Z,20.9
2017-11-25T02:14:43.370Z,20.86
2017-11-25T02:15:11.522Z,20.88
2017-11-25T02:15:39.757Z,20.86
2017-11-25T02:16:07.897Z,20.9
2017-11-25T02:16:36.042Z,20.88
2017-11-25T02:17:04.102Z,20.92
2017-11-25T02:17:32.247Z,20.82
2017-11-25T02:18:00.378Z,20.86
2017-11-25T02:18:28.780Z,20.86
2017-11-25T02:18:57.270Z,20.92
2017-11-25T02:19:25.519Z,20.86
2017-11-25T02:19:53.793Z,20.9
2017-11-25T02:20:21.767Z,20.77
2017-11-25T02:20:49.912Z,20.82
2017-11-25T02:21:18.090Z,20.8
2017-11-25T02:21:46.368Z,20.89
2017-11-25T02:22:14.744Z,20.85
2017-11-25T02:22:42.852Z,20.78
2017-11-25T02:23:11.004Z,20.85
2017-11-25T02:23:39.171Z,20.89
2017-11-25T02:24:07.397Z,20.8
2017-11-25T02:24:35.639Z,20.82
2017-11-25T02:25:03.808Z,20.92
2017-11-25T02:25:31.878Z,20.88
2017-11-25T02:26:00.826Z,20.9
2017-11-25T02:26:29.277Z,20.93
2017-11-25T02:26:57.680Z,21.05
2017-11-25T02:27:25.808Z,20.89
2017-11-25T02:27:53.921Z,20.96
2017-11-25T02:28:21.960Z,20.93
2017-11-25T02:28:50.082Z,20.98
2017-11-25T02:29:18.317Z,21.04
2017-11-25T02:29:46.233Z,20.98
2017-11-25T02:30:14.327Z,21.03
2017-11-25T02:30:42.394Z,20.88
2017-11-25T02:31:10.875Z,21.01
2017-11-25T02:31:39.496Z,20.92
2017-11-25T02:32:07.646Z,20.83
2017-11-25T02:32:35.748Z,20.9
2017-11-25T02:33:03.812Z,20.86
2017-11-25T02:33:31.933Z,20.95
2017-11-25T02:34:00.338Z,20.89
2017-11-25T02:34:28.437Z,20.89
2017-11-25T02:34:57.024Z,20.95
2017-11-25T02:35:25.433Z,20.86
2017-11-25T02:35:54.025Z,20.95
2017-11-25T02:36:22.202Z,20.95
2017-11-25T02:36:50.395Z,20.96
2017-11-25T02:37:18.494Z,20.82
2017-11-25T02:37:46.371Z,20.85
2017-11-25T02:38:14.390Z,20.83
2017-11-25T02:38:42.515Z,20.93
2017-11-25T02:39:10.672Z,20.9
2017-11-25T02:39:38.952Z,20.82
2017-11-25T02:40:07.126Z,20.82
2017-11-25T02:40:35.251Z,20.85
2017-11-25T02:41:03.390Z,20.86
2017-11-25T02:41:31.497Z,20.86
2017-11-25T02:42:00.063Z,20.86
2017-11-25T02:42:28.754Z,20.83
2017-11-25T02:42:56.796Z,20.8
2017-11-25T02:43:24.848Z,20.86
2017-11-25T02:43:52.994Z,20.74
2017-11-25T02:44:21.131Z,20.82
2017-11-25T02:44:49.509Z,20.86
2017-11-25T02:45:17.709Z,20.83
2017-11-25T02:45:45.659Z,20.86
2017-11-25T02:46:13.597Z,20.75
2017-11-25T02:46:41.708Z,20.77
2017-11-25T02:47:10.405Z,20.8
2017-11-25T02:47:38.476Z,20.78
2017-11-25T02:48:06.581Z,20.77
2017-11-25T02:48:34.834Z,20.78
2017-11-25T02:49:02.987Z,20.77
2017-11-25T02:49:31.053Z,20.74
2017-11-25T02:49:59.137Z,20.74
2017-11-25T02:50:27.725Z,20.71
2017-11-25T02:50:56.025Z,20.82
2017-11-25T02:51:24.146Z,20.82
2017-11-25T02:51:52.268Z,20.78
2017-11-25T02:52:20.789Z,20.88
2017-11-25T02:52:48.867Z,20.86
2017-11-25T02:53:17.037Z,20.8
2017-11-25T02:53:45.269Z,20.89
2017-11-25T02:54:13.480Z,20.88
2017-11-25T02:54:41.801Z,20.86
2017-11-25T02:55:09.997Z,20.78
2017-11-25T02:55:38.179Z,20.86
2017-11-25T02:56:06.708Z,20.88
2017-11-25T02:56:34.871Z,20.85
2017-11-25T02:57:02.940Z,20.82
2017-11-25T02:57:31.438Z,20.71
2017-11-25T02:57:59.651Z,20.7
2017-11-25T02:58:27.738Z,20.8
2017-11-25T02:58:56.129Z,20.71
2017-11-25T02:59:24.365Z,20.75
2017-11-25T02:59:52.447Z,20.74
2017-11-25T03:00:20.499Z,20.77
2017-11-25T03:00:48.684Z,20.8
2017-11-25T03:01:17.092Z,20.82
2017-11-25T03:01:45.370Z,20.71
2017-11-25T03:02:13.353Z,20.86
2017-11-25T03:02:41.386Z,20.83
2017-11-25T03:03:09.536Z,20.74
2017-11-25T03:03:37.694Z,20.74
2017-11-25T03:04:05.862Z,20.78
2017-11-25T03:04:34.476Z,20.7
2017-11-25T03:05:02.622Z,20.71
2017-11-25T03:05:30.676Z,20.74
2017-11-25T03:05:58.883Z,20.71
2017-11-25T03:06:27.047Z,20.67
2017-11-25T03:06:55.232Z,20.66
2017-11-25T03:07:23.133Z,20.68
2017-11-25T03:07:51.195Z,20.63
2017-11-25T03:08:19.232Z,20.59
2017-11-25T03:08:47.915Z,20.67
2017-11-25T03:09:16.156Z,20.6
2017-11-25T03:09:44.341Z,20.66
2017-11-25T03:10:12.645Z,20.64
2017-11-25T03:10:40.646Z,20.58
2017-11-25T03:11:08.964Z,20.59
2017-11-25T03:11:37.329Z,20.67
2017-11-25T03:12:05.495Z,20.64
2017-11-25T03:12:33.751Z,20.58
2017-11-25T03:13:01.926Z,20.63
2017-11-25T03:13:30.058Z,20.55
2017-11-25T03:13:58.509Z,20.6
2017-11-25T03:14:26.448Z,20.56
2017-11-25T03:14:54.587Z,20.63
2017-11-25T03:15:23.203Z,20.6
2017-11-25T03:15:51.388Z,20.55
2017-11-25T03:16:20.868Z,20.55
2017-11-25T03:16:48.800Z,20.59
2017-11-25T03:17:16.965Z,20.58
2017-11-25T03:17:45.481Z,20.58
2017-11-25T03:18:13.532Z,20.58
2017-11-25T03:18:41.635Z,20.66
2017-11-25T03:19:09.711Z,20.6
2017-11-25T03:19:37.777Z,20.58
2017-11-25T03:20:06.299Z,20.55
2017-11-25T03:20:34.412Z,20.56
2017-11-25T03:21:02.817Z,20.63
2017-11-25T03:21:31.412Z,20.63
2017-11-25T03:21:59.471Z,20.59
2017-11-25T03:22:27.449Z,20.56
2017-11-25T03:22:55.599Z,20.6
2017-11-25T03:23:24.254Z,20.56
2017-11-25T03:23:52.339Z,20.58
2017-11-25T03:24:20.380Z,20.58
2017-11-25T03:24:48.583Z,20.56
2017-11-25T03:25:16.869Z,20.59
2017-11-25T03:25:45.017Z,20.59
2017-11-25T03:26:13.190Z,20.56
2017-11-25T03:26:41.198Z,20.46
2017-11-25T03:27:09.706Z,20.55
2017-11-25T03:27:38.350Z,20.5
2017-11-25T03:28:06.529Z,20.52
2017-11-25T03:28:34.791Z,20.44
2017-11-25T03:29:03.097Z,20.48
2017-11-25T03:29:31.147Z,20.39
2017-11-25T03:29:59.320Z,20.37
2017-11-25T03:30:27.450Z,20.39
2017-11-25T03:30:55.602Z,20.42
2017-11-25T03:31:23.543Z,20.44
2017-11-25T03:31:51.790Z,20.4
2017-11-25T03:32:19.827Z,20.39
2017-11-25T03:32:47.981Z,20.48
2017-11-25T03:33:16.174Z,20.42
2017-11-25T03:33:44.204Z,20.42
2017-11-25T03:34:12.501Z,20.44
2017-11-25T03:34:40.575Z,20.37
2017-11-25T03:35:08.526Z,20.46
2017-11-25T03:35:36.595Z,20.44
2017-11-25T03:36:04.754Z,20.42
2017-11-25T03:36:32.964Z,20.4
2017-11-25T03:37:01.220Z,20.46
2017-11-25T03:37:29.261Z,20.46
2017-11-25T03:37:57.832Z,20.42
2017-11-25T03:38:25.864Z,20.3
2017-11-25T03:38:53.953Z,20.48
2017-11-25T03:39:22.516Z,20.44
2017-11-25T03:39:51.584Z,20.29
2017-11-25T03:40:19.762Z,20.3
2017-11-25T03:40:47.873Z,20.46
2017-11-25T03:41:15.947Z,20.36
2017-11-25T03:41:44.096Z,20.33
2017-11-25T03:42:12.226Z,20.44
2017-11-25T03:42:40.435Z,20.34
2017-11-25T03:43:08.602Z,20.39
2017-11-25T03:43:36.965Z,20.3
2017-11-25T03:44:05.031Z,20.37
2017-11-25T03:44:33.403Z,20.39
2017-11-25T03:45:01.570Z,20.29
2017-11-25T03:45:29.628Z,20.32
2017-11-25T03:45:57.709Z,20.27
2017-11-25T03:46:25.872Z,20.26
2017-11-25T03:46:53.836Z,20.26
2017-11-25T03:47:22.015Z,20.39
2017-11-25T03:47:50.215Z,20.4
2017-11-25T03:48:18.149Z,20.27
2017-11-25T03:48:46.471Z,20.32
2017-11-25T03:49:14.538Z,20.26
2017-11-25T03:49:42.654Z,20.29
2017-11-25T03:50:10.720Z,20.3
2017-11-25T03:50:38.857Z,20.4
2017-11-25T03:51:07.170Z,20.3
2017-11-25T03:51:35.347Z,20.44
2017-11-25T03:52:03.739Z,20.4
2017-11-25T03:52:32.148Z,20.44
2017-11-25T03:53:00.198Z,20.29
2017-11-25T03:53:28.412Z,20.33
2017-11-25T03:53:56.670Z,20.27
2017-11-25T03:54:24.662Z,20.4
2017-11-25T03:54:52.708Z,20.39
2017-11-25T03:55:21.236Z,20.29
2017-11-25T03:55:49.838Z,20.33
2017-11-25T03:56:18.261Z,20.27
2017-11-25T03:56:46.325Z,20.29
2017-11-25T03:57:14.516Z,20.29
2017-11-25T03:57:42.830Z,20.32
2017-11-25T03:58:10.989Z,20.26
2017-11-25T03:58:39.091Z,20.33
2017-11-25T03:59:07.258Z,20.4
2017-11-25T03:59:35.421Z,20.26
2017-11-25T04:00:03.474Z,20.36
2017-11-25T04:00:31.765Z,20.37
2017-11-25T04:00:59.969Z,20.29
2017-11-25T04:01:28.322Z,20.36
2017-11-25T04:01:56.468Z,20.34
2017-11-25T04:02:24.628Z,20.33
2017-11-25T04:02:52.794Z,20.21
2017-11-25T04:03:21.008Z,20.3
2017-11-25T04:03:49.201Z,20.19
2017-11-25T04:04:17.767Z,20.29
2017-11-25T04:04:46.458Z,20.32
2017-11-25T04:05:14.436Z,20.26
2017-11-25T04:05:42.650Z,20.33
2017-11-25T04:06:10.624Z,20.3
2017-11-25T04:06:39.283Z,20.3
2017-11-25T04:07:07.349Z,20.3
2017-11-25T04:07:36.061Z,20.33
2017-11-25T04:08:04.113Z,20.36
2017-11-25T04:08:32.056Z,20.3
2017-11-25T04:09:00.209Z,20.34
2017-11-25T04:09:28.364Z,20.34
2017-11-25T04:09:56.562Z,20.33
2017-11-25T04:10:24.547Z,20.24
2017-11-25T04:10:53.214Z,20.24
2017-11-25T04:11:21.345Z,20.32
2017-11-25T04:11:49.508Z,20.26
2017-11-25T04:12:17.649Z,20.39
2017-11-25T04:12:45.812Z,20.32
2017-11-25T04:13:14.178Z,20.34
2017-11-25T04:13:42.244Z,20.3
2017-11-25T04:14:10.188Z,20.3
2017-11-25T04:14:38.797Z,20.33
2017-11-25T04:15:07.489Z,20.27
2017-11-25T04:15:35.854Z,20.18
2017-11-25T04:16:04.111Z,20.22
2017-11-25T04:16:32.360Z,20.24
2017-11-25T04:17:00.527Z,20.18
2017-11-25T04:17:28.984Z,20.18
2017-11-25T04:17:57.172Z,20.22
2017-11-25T04:18:25.903Z,20.24
2017-11-25T04:18:53.964Z,20.14
2017-11-25T04:19:22.338Z,20.15
2017-11-25T04:19:50.540Z,20.12
2017-11-25T04:20:18.727Z,20.18
2017-11-25T04:20:47.124Z,20.11
2017-11-25T04:21:15.203Z,20.11
2017-11-25T04:21:43.133Z,20.08
2017-11-25T04:22:11.368Z,20.04
2017-11-25T04:22:39.416Z,20.04
2017-11-25T04:23:07.589Z,20.03
2017-11-25T04:23:35.723Z,20.07
2017-11-25T04:24:04.217Z,19.99
2017-11-25T04:24:32.736Z,20.04
2017-11-25T04:25:00.876Z,20
2017-11-25T04:25:29.050Z,19.97
2017-11-25T04:25:57.389Z,19.97
2017-11-25T04:26:25.426Z,19.97
2017-11-25T04:26:53.425Z,19.93
2017-11-25T04:27:21.607Z,19.87
2017-11-25T04:27:50.264Z,19.82
2017-11-25T04:28:18.329Z,19.93
2017-11-25T04:28:46.454Z,19.87
2017-11-25T04:29:14.702Z,19.9
2017-11-25T04:29:43.219Z,19.84
2017-11-25T04:30:11.678Z,19.82
2017-11-25T04:30:39.812Z,19.84
2017-11-25T04:31:07.986Z,19.85
2017-11-25T04:31:36.050Z,19.84
2017-11-25T04:32:04.917Z,19.85
2017-11-25T04:32:32.971Z,19.89
2017-11-25T04:33:01.118Z,19.9
2017-11-25T04:33:29.191Z,19.82
2017-11-25T04:33:57.255Z,19.87
2017-11-25T04:34:25.344Z,19.85
2017-11-25T04:34:53.734Z,19.93
2017-11-25T04:35:21.773Z,19.87
2017-11-25T04:35:49.981Z,19.84
2017-11-25T04:36:17.912Z,19.92
2017-11-25T04:36:45.961Z,19.85
2017-11-25T04:37:14.467Z,19.89
2017-11-25T04:37:42.720Z,19.92
2017-11-25T04:38:10.774Z,19.87
2017-11-25T04:38:39.651Z,19.87
2017-11-25T04:39:08.149Z,19.89
2017-11-25T04:39:36.747Z,19.87
2017-11-25T04:40:04.975Z,19.84
2017-11-25T04:40:33.338Z,19.82
2017-11-25T04:41:02.118Z,19.84
2017-11-25T04:41:30.873Z,19.85
2017-11-25T04:41:59.088Z,19.87
2017-11-25T04:42:27.171Z,19.82
2017-11-25T04:42:55.304Z,19.84
2017-11-25T04:43:23.860Z,19.84
2017-11-25T04:43:52.186Z,19.84
2017-11-25T04:44:20.278Z,19.82
2017-11-25T04:44:48.634Z,19.78
2017-11-25T04:45:16.661Z,19.81
2017-11-25T04:45:44.817Z,19.82
2017-11-25T04:46:13.180Z,19.81
2017-11-25T04:46:41.396Z,19.82
2017-11-25T04:47:09.496Z,19.81
2017-11-25T04:47:37.874Z,19.79
2017-11-25T04:48:05.963Z,19.82
2017-11-25T04:48:34.029Z,19.79
2017-11-25T04:49:02.147Z,19.66
2017-11-25T04:49:30.334Z,19.66
2017-11-25T04:49:58.595Z,19.7
2017-11-25T04:50:26.805Z,19.71
2017-11-25T04:50:55.162Z,19.75
2017-11-25T04:51:23.328Z,19.72
2017-11-25T04:51:51.620Z,19.75
2017-11-25T04:52:19.664Z,19.77
2017-11-25T04:52:47.729Z,19.71
2017-11-25T04:53:15.840Z,19.64
2017-11-25T04:53:44.018Z,19.66
2017-11-25T04:54:12.213Z,19.66
2017-11-25T04:54:41.096Z,19.64
2017-11-25T04:55:09.626Z,19.66
2017-11-25T04:55:37.754Z,19.64
2017-11-25T04:56:06.156Z,19.64
2017-11-25T04:56:34.563Z,19.63
2017-11-25T04:57:03.149Z,19.62
2017-11-25T04:57:31.579Z,19.66
2017-11-25T04:57:59.715Z,19.66
2017-11-25T04:58:27.720Z,19.56
2017-11-25T04:58:55.835Z,19.55
2017-11-25T04:59:24.055Z,19.53
2017-11-25T04:59:52.342Z,19.56
2017-11-25T05:00:20.823Z,19.56
2017-11-25T05:00:49.733Z,19.59
2017-11-25T05:01:17.804Z,19.59
2017-11-25T05:01:45.963Z,19.6
2017-11-25T05:02:14.009Z,19.52
2017-11-25T05:02:42.175Z,19.53
2017-11-25T05:03:10.359Z,19.56
2017-11-25T05:03:38.525Z,19.48
2017-11-25T05:04:06.697Z,19.53
2017-11-25T05:04:34.852Z,19.56
2017-11-25T05:05:03.007Z,19.44
2017-11-25T05:05:31.169Z,19.56
2017-11-25T05:05:59.321Z,19.44
2017-11-25T05:06:28.226Z,19.53
2017-11-25T05:06:56.700Z,19.52
2017-11-25T05:07:25.074Z,19.49
2017-11-25T05:07:53.239Z,19.47
2017-11-25T05:08:21.275Z,19.44
2017-11-25T05:08:49.445Z,19.47
2017-11-25T05:09:18.138Z,19.45
2017-11-25T05:09:46.531Z,19.48
2017-11-25T05:10:14.649Z,19.41
2017-11-25T05:10:43.160Z,19.48
2017-11-25T05:11:11.427Z,19.48
2017-11-25T05:11:39.571Z,19.42
2017-11-25T05:12:07.728Z,19.44
2017-11-25T05:12:35.861Z,19.47
2017-11-25T05:13:03.903Z,19.48
2017-11-25T05:13:32.006Z,19.42
2017-11-25T05:14:00.154Z,19.48
2017-11-25T05:14:28.173Z,19.39
2017-11-25T05:14:56.313Z,19.38
2017-11-25T05:15:24.356Z,19.38
2017-11-25T05:15:53.237Z,19.35
2017-11-25T05:16:21.538Z,19.38
2017-11-25T05:16:49.670Z,19.32
2017-11-25T05:17:18.693Z,19.35
2017-11-25T05:17:47.219Z,19.39
2017-11-25T05:18:15.252Z,19.35
2017-11-25T05:18:43.316Z,19.37
2017-11-25T05:19:11.459Z,19.39
2017-11-25T05:19:39.620Z,19.37
2017-11-25T05:20:07.687Z,19.35
2017-11-25T05:20:35.769Z,19.29
2017-11-25T05:21:03.908Z,19.35
2017-11-25T05:21:31.950Z,19.27
2017-11-25T05:21:59.903Z,19.27
2017-11-25T05:22:28.055Z,19.26
2017-11-25T05:22:56.484Z,19.12
2017-11-25T05:23:24.617Z,19.2
2017-11-25T05:23:52.747Z,19.19
2017-11-25T05:24:20.950Z,19.08
2017-11-25T05:24:49.014Z,19.09
2017-11-25T05:25:17.104Z,19.16
2017-11-25T05:25:45.225Z,19.08
2017-11-25T05:26:14.181Z,19.09
2017-11-25T05:26:42.131Z,19.11
2017-11-25T05:27:10.294Z,19.08
2017-11-25T05:27:38.632Z,19.07
2017-11-25T05:28:07.106Z,19.17
2017-11-25T05:28:35.516Z,19.16
2017-11-25T05:29:03.995Z,19.08
2017-11-25T05:29:32.136Z,19.08
2017-11-25T05:30:00.284Z,19.11
2017-11-25T05:30:28.607Z,19.08
2017-11-25T05:30:56.643Z,19.12
2017-11-25T05:31:24.927Z,19.11
2017-11-25T05:31:53.074Z,19.11
2017-11-25T05:32:21.155Z,19.12
2017-11-25T05:32:49.139Z,19.12
2017-11-25T05:33:17.200Z,19.12
2017-11-25T05:33:46.019Z,19.11
2017-11-25T05:34:14.197Z,19.09
2017-11-25T05:34:42.349Z,19.11
2017-11-25T05:35:10.320Z,19.09
2017-11-25T05:35:38.443Z,19.09
2017-11-25T05:36:06.602Z,19.15
2017-11-25T05:36:34.530Z,19.05
2017-11-25T05:37:03.146Z,19.12
2017-11-25T05:37:31.331Z,19.11
2017-11-25T05:38:00.036Z,19.08
2017-11-25T05:38:28.079Z,19.11
2017-11-25T05:38:56.044Z,19.12
2017-11-25T05:39:24.147Z,19.12
2017-11-25T05:39:52.289Z,19.08
2017-11-25T05:40:20.408Z,19.15
2017-11-25T05:40:48.568Z,19.15
2017-11-25T05:41:16.619Z,19.17
2017-11-25T05:41:44.815Z,19.12
2017-11-25T05:42:13.038Z,19.07
2017-11-25T05:42:41.647Z,19.12
2017-11-25T05:43:09.769Z,19.12
2017-11-25T05:43:38.371Z,19.09
2017-11-25T05:44:07.362Z,19.11
2017-11-25T05:44:35.998Z,19.05
2017-11-25T05:45:04.070Z,19.09
2017-11-25T05:45:32.228Z,19.09
2017-11-25T05:46:00.623Z,19.08
2017-11-25T05:46:28.817Z,19.17
2017-11-25T05:46:56.983Z,19.16
2017-11-25T05:47:25.099Z,19.2
2017-11-25T05:47:53.393Z,19.15
2017-11-25T05:48:21.800Z,19.2
2017-11-25T05:48:50.061Z,19.2
2017-11-25T05:49:18.200Z,19.19
2017-11-25T05:49:46.612Z,19.2
2017-11-25T05:50:14.899Z,19.22
2017-11-25T05:50:42.934Z,19.16
2017-11-25T05:51:10.987Z,19.22
2017-11-25T05:51:39.029Z,19.22
2017-11-25T05:52:07.200Z,19.16
2017-11-25T05:52:35.359Z,19.2
2017-11-25T05:53:03.465Z,19.2
2017-11-25T05:53:31.615Z,19.22
2017-11-25T05:54:00.217Z,19.09
2017-11-25T05:54:28.209Z,19.19
2017-11-25T05:54:56.661Z,19.11
2017-11-25T05:55:24.906Z,19.07
2017-11-25T05:55:53.026Z,19.16
2017-11-25T05:56:21.219Z,19.04
2017-11-25T05:56:49.436Z,19.08
2017-11-25T05:57:17.620Z,19.08
2017-11-25T05:57:45.774Z,19.05
2017-11-25T05:58:13.822Z,19.04
2017-11-25T05:58:42.319Z,19.04
2017-11-25T05:59:10.504Z,18.94
2017-11-25T05:59:38.541Z,19.07
2017-11-25T06:00:06.586Z,19.04
2017-11-25T06:00:34.743Z,18.98
2017-11-25T06:01:02.921Z,19.01
2017-11-25T06:01:31.054Z,18.97
2017-11-25T06:01:59.216Z,18.97
2017-11-25T06:02:27.320Z,18.92
2017-11-25T06:02:55.482Z,18.97
2017-11-25T06:03:23.669Z,18.97
2017-11-25T06:03:51.812Z,18.89
2017-11-25T06:04:20.142Z,19
2017-11-25T06:04:48.227Z,18.91
2017-11-25T06:05:16.298Z,18.89